Time;durP1;ratioP1;P1;durP2;ratioP2;P2;SDS_P1;SDS_P2;PMS_P1;PMS_P2;Temp;Humidity;BMP_temperature;BMP_pressure;BME280_temperature;BME280_humidity;BME280_pressure;Samples;Min_cycle;Max_cycle;Signal;HPM_P1;HPM_P2
2021/12/01 00:02:25;;;;;;;;;15.50;12.25;;;;;10.96;66.67;100916.03;5034619;28;45219;-85
2021/12/01 00:04:50;;;;;;;;;14.00;10.25;;;;;10.99;66.68;100894.88;5033732;28;45223;-85
2021/12/01 00:07:17;;;;;;;;;16.75;14.00;;;;;10.99;66.83;100891.38;5031581;28;45433;-84
2021/12/01 00:09:43;;;;;;;;;15.75;13.25;;;;;11.00;66.50;100891.34;5030740;28;45278;-84
2021/12/01 00:12:09;;;;;;;;;13.75;12.75;;;;;10.95;66.88;100889.78;5037582;28;45461;-85
2021/12/01 00:14:34;;;;;;;;;13.75;11.25;;;;;10.96;66.62;100879.22;5040241;28;45469;-85
2021/12/01 00:17:00;;;;;;;;;15.50;12.75;;;;;10.98;66.97;100882.66;5031575;28;45473;-85
2021/12/01 00:19:29;;;;;;;;;14.00;14.00;;;;;10.98;66.84;100881.78;5033125;28;45418;-85
2021/12/01 00:21:54;;;;;;;;;15.75;14.25;;;;;11.00;66.76;100870.31;5035455;28;45249;-85
2021/12/01 00:24:20;;;;;;;;;16.50;15.25;;;;;11.00;66.54;100864.19;5039598;28;45314;-85
2021/12/01 00:26:46;;;;;;;;;18.75;15.25;;;;;11.00;66.63;100854.53;5049756;28;46822;-82
2021/12/01 00:29:12;;;;;;;;;16.00;13.50;;;;;10.96;66.64;100824.00;5029749;28;45366;-84
2021/12/01 00:31:37;;;;;;;;;13.75;12.00;;;;;10.95;66.59;100838.03;5032985;28;45352;-84
2021/12/01 00:34:03;;;;;;;;;12.75;10.75;;;;;10.99;66.72;100823.88;5055145;28;45248;-84
2021/12/01 00:36:29;;;;;;;;;16.25;13.25;;;;;11.00;66.82;100815.09;5035276;28;45692;-84
2021/12/01 00:38:54;;;;;;;;;14.00;13.00;;;;;11.03;66.68;100800.97;5032999;28;46111;-83
2021/12/01 00:41:22;;;;;;;;;11.50;11.25;;;;;11.03;66.56;100795.72;5029142;28;45500;-84
2021/12/01 00:43:47;;;;;;;;;13.00;11.00;;;;;11.02;66.82;100792.22;5040334;28;45395;-84
2021/12/01 00:46:36;;;;;;;;;11.75;11.50;;;;;11.03;66.59;100774.66;5040376;28;45381;-85
2021/12/01 00:49:02;;;;;;;;;13.50;12.00;;;;;11.00;66.81;100737.94;5034982;28;45443;-83
2021/12/01 00:51:27;;;;;;;;;12.25;10.00;;;;;11.00;66.51;100754.59;5020421;28;45231;-82
2021/12/01 00:53:53;;;;;;;;;13.25;11.50;;;;;10.99;66.88;100742.34;5035146;28;45194;-83
2021/12/01 00:56:18;;;;;;;;;12.25;11.75;;;;;11.00;66.73;100736.19;5039962;28;45473;-83
2021/12/01 00:58:44;;;;;;;;;10.00;9.75;;;;;11.03;66.76;100730.81;5036443;28;45381;-82
2021/12/01 01:01:09;;;;;;;;;14.25;10.75;;;;;11.06;66.44;100726.38;5038207;28;45413;-83
2021/12/01 01:03:35;;;;;;;;;13.50;11.00;;;;;11.06;66.87;100711.44;5038513;28;45377;-83
2021/12/01 01:06:01;;;;;;;;;13.25;12.75;;;;;11.08;66.52;100714.00;5031855;28;45473;-83
2021/12/01 01:08:26;;;;;;;;;9.00;9.00;;;;;11.06;66.86;100695.66;5038594;28;46113;-84
2021/12/01 01:16:24;;;;;;;;;9.75;9.75;;;;;11.06;66.41;100692.16;5026345;28;45497;-83
2021/12/01 01:19:02;;;;;;;;;12.75;8.75;;;;;11.08;66.94;100696.47;5038392;28;45446;-81
2021/12/01 01:21:35;;;;;;;;;12.00;11.00;;;;;11.11;66.56;100695.50;5037473;28;45747;-83
2021/12/01 01:24:01;;;;;;;;;12.75;10.25;;;;;11.13;66.35;100691.03;5050104;28;45318;-83
2021/12/01 01:26:27;;;;;;;;;11.50;11.25;;;;;11.17;66.30;100681.25;5035817;28;46308;-83
2021/12/01 01:28:53;;;;;;;;;14.75;11.00;;;;;11.16;66.60;100672.47;5035499;28;45397;-84
2021/12/01 01:31:20;;;;;;;;;16.00;13.00;;;;;11.14;66.24;100661.16;5042997;28;45523;-81
2021/12/01 01:33:46;;;;;;;;;13.25;10.75;;;;;11.16;66.31;100666.38;5039734;28;45425;-80
2021/12/01 01:36:12;;;;;;;;;15.00;13.75;;;;;11.16;66.00;100661.97;5034113;28;45453;-81
2021/12/01 01:38:39;;;;;;;;;13.00;12.00;;;;;11.16;66.28;100667.22;5036717;28;46506;-81
2021/12/01 01:41:07;;;;;;;;;12.25;11.75;;;;;11.14;65.98;100656.78;5025530;28;45652;-83
2021/12/01 01:43:34;;;;;;;;;11.50;10.75;;;;;11.13;65.84;100667.34;5039485;28;45448;-81
2021/12/01 01:45:59;;;;;;;;;14.00;11.25;;;;;11.09;65.93;100655.22;5060218;28;46249;-82
2021/12/01 01:48:32;;;;;;;;;14.75;12.50;;;;;11.08;66.21;100650.88;5041384;28;48261;-82
2021/12/01 01:51:03;;;;;;;;;13.00;11.00;;;;;11.07;66.14;100651.78;5038213;28;46673;-81
2021/12/01 01:53:30;;;;;;;;;10.25;10.25;;;;;11.06;66.12;100653.59;5037054;28;45305;-81
2021/12/01 01:56:02;;;;;;;;;15.25;14.00;;;;;11.07;66.06;100644.75;5044517;28;46096;-82
2021/12/01 01:58:29;;;;;;;;;11.50;10.25;;;;;11.05;66.20;100648.34;5045988;28;45577;-82
2021/12/01 02:01:06;;;;;;;;;15.25;10.75;;;;;11.05;65.97;100648.34;5028779;28;45781;-82
2021/12/01 02:03:37;;;;;;;;;10.50;9.75;;;;;11.02;66.31;100650.19;5028212;28;45448;-82
2021/12/01 02:06:03;;;;;;;;;12.50;12.50;;;;;11.02;66.16;100636.16;5043885;28;45513;-81
2021/12/01 02:08:33;;;;;;;;;14.00;11.50;;;;;10.97;66.58;100641.59;5040152;28;46944;-81
2021/12/01 02:11:02;;;;;;;;;13.00;11.50;;;;;11.01;66.64;100635.31;5041574;28;45441;-81
2021/12/01 02:13:28;;;;;;;;;12.25;10.50;;;;;11.06;66.71;100632.53;5045911;28;45361;-82
2021/12/01 02:15:56;;;;;;;;;16.00;13.50;;;;;11.07;66.60;100625.47;5034431;28;45349;-81
2021/12/01 02:18:22;;;;;;;;;11.75;11.50;;;;;11.10;66.77;100620.13;5026049;28;46358;-81
2021/12/01 02:21:18;;;;;;;;;12.50;12.25;;;;;11.12;66.54;100615.66;5041755;28;45274;-81
2021/12/01 02:23:46;;;;;;;;;10.25;9.75;;;;;11.10;66.91;100613.09;5053372;28;45354;-81
2021/12/01 02:26:14;;;;;;;;;13.50;11.25;;;;;11.05;66.63;100595.75;5044408;28;45457;-81
2021/12/01 02:28:41;;;;;;;;;15.50;12.50;;;;;11.05;67.00;100587.88;5029478;28;45441;-81
2021/12/01 02:31:08;;;;;;;;;17.25;12.00;;;;;11.06;67.22;100594.84;5037960;28;45278;-81
2021/12/01 02:33:33;;;;;;;;;16.25;13.75;;;;;11.04;67.56;100584.38;5038129;28;45229;-82
2021/12/01 02:35:59;;;;;;;;;18.25;13.50;;;;;11.00;67.37;100569.63;5038689;28;45765;-82
2021/12/01 02:38:25;;;;;;;;;13.25;11.00;;;;;11.00;67.66;100567.88;5035539;28;45936;-80
2021/12/01 02:40:51;;;;;;;;;16.75;14.25;;;;;10.98;67.84;100563.56;5027691;28;45334;-80
2021/12/01 02:43:17;;;;;;;;;15.00;15.00;;;;;10.98;67.67;100556.56;5038386;28;45425;-80
2021/12/01 02:45:43;;;;;;;;;14.25;12.00;;;;;10.95;67.77;100546.13;5045195;28;45390;-79
2021/12/01 02:48:13;;;;;;;;;10.50;9.50;;;;;10.97;67.60;100538.19;5037876;28;46368;-80
2021/12/01 02:50:42;;;;;;;;;12.00;10.00;;;;;10.99;67.67;100526.69;5040146;28;46161;-81
2021/12/01 02:53:07;;;;;;;;;12.00;12.00;;;;;11.00;67.82;100528.41;5039315;28;45358;-80
2021/12/01 02:55:40;;;;;;;;;8.50;8.50;;;;;10.99;67.74;100513.53;5045087;28;45502;-81
2021/12/01 02:58:07;;;;;;;;;10.50;10.00;;;;;11.00;67.67;100498.63;5038718;28;46476;-81
2021/12/01 03:00:34;;;;;;;;;11.00;10.00;;;;;11.02;67.70;100502.03;5035471;28;45440;-81
2021/12/01 03:03:00;;;;;;;;;13.75;10.00;;;;;10.98;67.79;100488.19;5053166;28;45302;-81
2021/12/01 03:05:25;;;;;;;;;8.25;8.25;;;;;11.01;67.81;100484.56;5041592;28;45434;-84
2021/12/01 03:07:52;;;;;;;;;7.00;5.75;;;;;10.99;67.74;100476.72;5037053;28;45193;-84
2021/12/01 03:10:17;;;;;;;;;9.25;8.25;;;;;11.00;67.72;100470.56;5026362;28;45776;-87
2021/12/01 03:12:43;;;;;;;;;9.00;7.00;;;;;10.98;67.83;100450.50;5039771;28;45356;-88
2021/12/01 03:15:15;;;;;;;;;6.50;6.50;;;;;11.01;68.00;100438.06;5041549;28;45552;-82
2021/12/01 03:17:41;;;;;;;;;6.50;6.50;;;;;11.02;67.96;100426.63;5037729;28;46430;-82
2021/12/01 03:20:11;;;;;;;;;7.50;7.00;;;;;11.07;67.93;100412.44;5035522;28;45469;-81
2021/12/01 03:22:36;;;;;;;;;9.25;8.75;;;;;11.10;68.09;100401.81;5041868;28;45299;-81
2021/12/01 03:25:08;;;;;;;;;10.00;8.50;;;;;11.11;67.99;100414.88;5041181;28;46187;-81
2021/12/01 03:27:33;;;;;;;;;6.75;5.50;;;;;11.10;67.83;100402.66;5039722;28;45282;-81
2021/12/01 03:29:58;;;;;;;;;6.00;6.00;;;;;11.11;68.06;100396.47;5036937;28;45280;-81
2021/12/01 03:32:25;;;;;;;;;6.00;6.00;;;;;11.16;68.53;100404.16;5039797;28;45389;-81
2021/12/01 03:34:50;;;;;;;;;7.00;5.00;;;;;11.14;68.18;100404.25;5038753;28;45534;-80
2021/12/01 03:37:16;;;;;;;;;5.50;4.50;;;;;11.17;68.10;100398.00;5055848;28;46298;-80
2021/12/01 03:39:41;;;;;;;;;9.00;8.00;;;;;11.19;68.26;100395.28;5021991;28;45326;-87
2021/12/01 03:42:07;;;;;;;;;5.25;5.25;;;;;11.18;68.38;100383.94;5033756;28;45295;-80
2021/12/01 03:44:32;;;;;;;;;7.75;7.75;;;;;11.15;68.51;100378.81;5026798;28;46941;-80
2021/12/01 03:46:58;;;;;;;;;12.75;8.00;;;;;11.18;68.51;100373.41;5041113;28;45326;-80
2021/12/01 03:49:24;;;;;;;;;6.50;6.00;;;;;11.17;68.45;100362.94;5027444;28;45233;-81
2021/12/01 03:51:49;;;;;;;;;8.50;8.00;;;;;11.21;68.44;100349.59;5056770;28;45243;-82
2021/12/01 03:54:15;;;;;;;;;10.00;8.75;;;;;11.25;68.90;100345.94;5027817;28;45476;-84
2021/12/01 03:56:40;;;;;;;;;6.25;6.00;;;;;11.23;68.47;100339.88;5027359;28;45678;-82
2021/12/01 03:59:06;;;;;;;;;13.00;8.75;;;;;11.27;68.56;100326.59;5038426;28;45202;-81
2021/12/01 04:01:33;;;;;;;;;9.00;8.75;;;;;11.27;68.53;100316.91;5041237;28;45217;-81
2021/12/01 04:03:58;;;;;;;;;10.75;8.50;;;;;11.29;68.89;100312.44;5040936;28;45463;-81
2021/12/01 04:06:25;;;;;;;;;10.50;7.50;;;;;11.30;68.84;100308.03;5040772;28;45231;-81
2021/12/01 04:08:51;;;;;;;;;10.00;8.00;;;;;11.31;69.04;100300.06;5037718;28;45381;-82
2021/12/01 04:11:16;;;;;;;;;8.00;8.00;;;;;11.31;69.05;100302.69;5040690;28;45441;-82
2021/12/01 04:13:42;;;;;;;;;10.00;8.00;;;;;11.28;69.28;100287.06;5040812;28;45423;-81
2021/12/01 04:16:07;;;;;;;;;11.75;9.00;;;;;11.29;69.54;100280.00;5056205;28;47229;-82
2021/12/01 04:18:32;;;;;;;;;10.00;9.75;;;;;11.25;69.31;100269.63;5030193;28;46707;-82
2021/12/01 04:20:58;;;;;;;;;7.25;7.00;;;;;11.24;69.88;100260.03;5030917;28;45330;-83
2021/12/01 04:23:23;;;;;;;;;8.00;8.00;;;;;11.23;69.65;100260.97;5040559;28;45511;-83
2021/12/01 04:25:49;;;;;;;;;10.00;8.00;;;;;11.22;70.33;100250.50;5040538;28;46339;-83
2021/12/01 04:28:15;;;;;;;;;8.75;7.00;;;;;11.19;70.06;100240.97;5033050;28;45210;-82
2021/12/01 04:30:40;;;;;;;;;10.00;9.00;;;;;11.18;69.87;100220.84;5030370;28;45267;-83
2021/12/01 04:33:06;;;;;;;;;10.00;7.50;;;;;11.20;70.13;100224.25;5026235;28;45221;-85
2021/12/01 04:35:33;;;;;;;;;7.50;7.50;;;;;11.17;70.32;100208.59;5031802;28;46459;-82
2021/12/01 04:37:59;;;;;;;;;6.50;6.50;;;;;11.16;70.25;100203.44;5036196;28;45645;-81
2021/12/01 04:40:25;;;;;;;;;7.00;7.00;;;;;11.15;70.62;100194.69;5030800;28;45429;-82
2021/12/01 04:42:50;;;;;;;;;4.75;4.00;;;;;11.09;70.78;100184.41;5038138;28;45432;-82
2021/12/01 04:45:19;;;;;;;;;7.00;5.00;;;;;11.07;70.80;100202.91;5027023;28;46955;-80
2021/12/01 04:47:52;;;;;;;;;8.75;7.75;;;;;11.06;70.72;100181.94;5039111;28;45223;-83
2021/12/01 04:50:20;;;;;;;;;5.00;4.50;;;;;11.01;71.59;100180.34;5040698;28;45473;-83
2021/12/01 04:52:46;;;;;;;;;3.00;3.00;;;;;10.97;71.11;100164.78;5040287;28;45216;-83
2021/12/01 04:55:12;;;;;;;;;4.00;4.00;;;;;11.00;71.19;100170.75;5037369;28;45401;-84
2021/12/01 04:57:43;;;;;;;;;4.00;4.00;;;;;10.99;71.21;100162.91;5039697;28;45397;-84
2021/12/01 05:00:11;;;;;;;;;3.00;3.00;;;;;10.98;71.24;100161.22;5039605;28;45462;-81
2021/12/01 05:02:37;;;;;;;;;4.00;4.00;;;;;10.97;71.69;100155.09;5035287;28;45504;-81
2021/12/01 05:05:03;;;;;;;;;5.25;4.50;;;;;10.96;71.67;100148.16;5039931;28;46278;-81
2021/12/01 05:07:29;;;;;;;;;2.00;2.00;;;;;10.90;72.15;100146.66;5034885;28;45234;-81
2021/12/01 05:09:56;;;;;;;;;2.50;2.50;;;;;10.89;71.43;100141.47;5025747;28;45532;-81
2021/12/01 05:12:21;;;;;;;;;4.25;3.00;;;;;10.86;71.66;100131.06;5038516;28;45577;-83
2021/12/01 05:14:46;;;;;;;;;1.50;1.50;;;;;10.86;71.73;100128.44;5055205;28;47369;-82
2021/12/01 05:17:12;;;;;;;;;2.50;1.50;;;;;10.85;71.85;100114.44;5040012;28;45437;-81
2021/12/01 05:19:37;;;;;;;;;2.50;2.00;;;;;10.87;71.82;100109.09;5023671;28;45369;-80
2021/12/01 05:22:03;;;;;;;;;2.00;2.00;;;;;10.87;72.10;100107.34;5029850;28;45427;-81
2021/12/01 05:24:29;;;;;;;;;3.50;3.50;;;;;10.84;71.94;100107.47;5038279;28;45302;-81
2021/12/01 05:26:55;;;;;;;;;2.50;2.00;;;;;10.87;72.07;100101.22;5039368;28;45283;-80
2021/12/01 05:29:22;;;;;;;;;3.25;2.00;;;;;10.86;71.67;100100.38;5024215;28;45441;-85
2021/12/01 05:31:47;;;;;;;;;1.00;1.00;;;;;10.85;72.32;100087.28;5055229;28;47308;-84
2021/12/01 05:34:13;;;;;;;;;1.50;1.50;;;;;10.85;72.74;100084.66;5038238;28;45333;-84
2021/12/01 05:36:38;;;;;;;;;2.00;1.00;;;;;10.83;72.21;100082.13;5029281;28;45440;-88
2021/12/01 05:39:04;;;;;;;;;1.50;1.50;;;;;10.84;72.08;100085.59;5036078;28;45793;-85
2021/12/01 05:41:29;;;;;;;;;3.00;2.25;;;;;10.87;72.16;100074.94;5030695;28;45383;-86
2021/12/01 05:43:54;;;;;;;;;1.50;1.50;;;;;10.88;72.69;100071.38;5033402;28;45982;-84
2021/12/01 05:46:20;;;;;;;;;2.00;1.00;;;;;10.88;72.31;100066.13;5033948;28;45403;-86
2021/12/01 05:48:45;;;;;;;;;1.25;1.25;;;;;10.88;72.19;100055.63;5030553;28;45225;-86
2021/12/01 05:51:11;;;;;;;;;1.00;1.00;;;;;10.91;72.64;100053.69;5039666;28;45307;-88
2021/12/01 05:53:36;;;;;;;;;1.00;1.00;;;;;10.85;72.44;100046.09;5038077;28;46352;-87
2021/12/01 05:56:03;;;;;;;;;1.00;1.00;;;;;10.87;72.41;100051.25;5039367;28;45375;-91
2021/12/01 05:58:28;;;;;;;;;1.00;1.00;;;;;10.88;72.52;100051.22;5037777;28;45391;-87
2021/12/01 06:00:54;;;;;;;;;1.00;1.00;;;;;10.89;72.46;100052.06;5035347;28;45323;-86
2021/12/01 06:03:19;;;;;;;;;1.75;1.75;;;;;10.91;72.62;100043.16;5044982;28;46283;-84
2021/12/01 06:05:45;;;;;;;;;1.00;1.00;;;;;10.96;72.23;100042.13;5035298;28;45291;-85
2021/12/01 06:08:11;;;;;;;;;1.50;1.50;;;;;11.02;72.43;100036.56;5038941;28;45237;-84
2021/12/01 06:10:38;;;;;;;;;1.75;1.75;;;;;11.02;72.61;100029.53;5031066;28;45476;-79
2021/12/01 06:13:04;;;;;;;;;0.50;0.00;;;;;11.03;72.26;100012.84;5031262;28;45429;-81
2021/12/01 06:15:31;;;;;;;;;1.50;1.00;;;;;11.03;72.50;100002.31;5031990;28;45342;-81
2021/12/01 06:17:58;;;;;;;;;1.50;1.50;;;;;11.05;72.68;99996.13;5028594;28;45412;-79
2021/12/01 06:20:24;;;;;;;;;1.00;1.00;;;;;11.08;72.57;100015.25;5033353;28;46219;-81
2021/12/01 06:22:50;;;;;;;;;1.25;1.25;;;;;11.05;72.68;99993.50;5047654;28;48004;-82
2021/12/01 06:25:16;;;;;;;;;2.25;1.00;;;;;11.10;72.70;99991.50;5039020;28;45440;-81
2021/12/01 06:27:42;;;;;;;;;1.00;1.00;;;;;11.10;72.82;99989.75;5037035;28;45200;-81
2021/12/01 06:30:08;;;;;;;;;1.75;0.25;;;;;11.10;73.11;99989.75;5039106;28;45449;-81
2021/12/01 06:32:34;;;;;;;;;1.00;0.00;;;;;11.10;73.32;99989.75;5024323;28;47107;-82
2021/12/01 06:35:00;;;;;;;;;1.00;1.00;;;;;11.10;72.92;99975.72;5029356;28;45402;-80
2021/12/01 06:37:25;;;;;;;;;1.00;1.00;;;;;11.15;73.43;99979.00;5038759;28;45505;-80
2021/12/01 06:39:51;;;;;;;;;0.00;0.00;;;;;11.17;72.85;99966.63;5042311;28;45433;-80
2021/12/01 06:42:17;;;;;;;;;1.00;1.00;;;;;11.16;73.06;99972.78;5041232;28;46084;-80
2021/12/01 06:44:42;;;;;;;;;1.00;1.00;;;;;11.17;73.11;99971.88;5042336;28;45563;-81
2021/12/01 06:47:08;;;;;;;;;1.00;1.00;;;;;11.19;73.34;99951.59;5040871;28;45366;-81
2021/12/01 06:49:34;;;;;;;;;0.75;0.75;;;;;11.21;73.29;99965.53;5055506;28;46040;-80
2021/12/01 06:51:59;;;;;;;;;1.00;1.00;;;;;11.22;73.13;99961.13;5028187;28;46627;-81
2021/12/01 06:54:24;;;;;;;;;1.25;1.25;;;;;11.25;73.22;99953.97;5040629;28;45255;-81
2021/12/01 06:56:50;;;;;;;;;1.00;0.50;;;;;11.29;73.20;99956.41;5028179;28;45425;-80
2021/12/01 06:59:15;;;;;;;;;2.00;0.75;;;;;11.29;73.25;99945.91;5057718;28;46819;-79
2021/12/01 07:01:41;;;;;;;;;1.50;1.50;;;;;11.32;73.80;99953.66;5032807;28;45339;-80
2021/12/01 07:04:06;;;;;;;;;2.50;1.00;;;;;11.32;73.30;99951.00;5041993;28;45219;-81
2021/12/01 07:06:32;;;;;;;;;1.00;1.00;;;;;11.34;73.57;99947.38;5033081;28;45275;-81
2021/12/01 07:09:00;;;;;;;;;1.00;1.00;;;;;11.39;73.72;99948.94;5042035;28;45476;-80
2021/12/01 07:11:26;;;;;;;;;2.00;1.00;;;;;11.39;73.43;99944.53;5033962;28;45881;-80
2021/12/01 07:13:52;;;;;;;;;1.50;1.50;;;;;11.42;73.57;99938.25;5029804;28;45375;-80
2021/12/01 07:16:17;;;;;;;;;0.25;0.25;;;;;11.44;73.55;99931.13;5040763;28;45421;-80
2021/12/01 07:18:43;;;;;;;;;1.50;1.50;;;;;11.44;73.43;99932.00;5044018;28;46117;-80
2021/12/01 07:21:08;;;;;;;;;0.25;0.00;;;;;11.50;73.71;99946.63;5038642;28;45984;-81
2021/12/01 07:23:34;;;;;;;;;2.75;1.00;;;;;11.51;73.82;99937.78;5036496;28;45363;-81
2021/12/01 07:26:03;;;;;;;;;2.25;1.25;;;;;11.53;73.53;99937.75;5034226;28;45395;-80
2021/12/01 07:28:28;;;;;;;;;0.00;0.00;;;;;11.56;73.35;99933.16;5022141;28;47643;-81
2021/12/01 07:30:54;;;;;;;;;1.00;0.25;;;;;11.58;73.07;99936.56;5036798;28;47488;-80
2021/12/01 07:33:19;;;;;;;;;0.50;0.00;;;;;11.57;73.28;99926.97;5029851;28;45587;-80
2021/12/01 07:35:44;;;;;;;;;1.00;1.00;;;;;11.58;73.26;99928.66;5032735;28;45421;-80
2021/12/01 07:38:10;;;;;;;;;2.00;0.25;;;;;11.62;73.20;99928.53;5032704;28;46710;-80
2021/12/01 07:40:35;;;;;;;;;1.00;1.00;;;;;11.65;73.00;99929.22;5041278;28;46357;-81
2021/12/01 07:43:01;;;;;;;;;0.00;0.00;;;;;11.65;73.13;99934.50;5039570;28;45434;-81
2021/12/01 07:45:27;;;;;;;;;1.00;0.00;;;;;11.65;73.20;99931.88;5040212;28;45620;-80
2021/12/01 07:47:53;;;;;;;;;0.00;0.00;;;;;11.67;73.22;99939.66;5032853;28;45359;-80
2021/12/01 07:50:18;;;;;;;;;0.00;0.00;;;;;11.68;73.18;99942.22;5035855;28;45972;-81
2021/12/01 07:52:43;;;;;;;;;0.00;0.00;;;;;11.70;73.28;99936.88;5041330;28;45319;-79
2021/12/01 07:55:09;;;;;;;;;0.00;0.00;;;;;11.76;73.29;99943.59;5038162;28;45319;-80
2021/12/01 07:57:34;;;;;;;;;1.00;1.00;;;;;11.75;73.10;99932.25;5039877;28;46939;-80
2021/12/01 08:00:00;;;;;;;;;0.00;0.00;;;;;11.77;73.09;99937.41;5035658;28;46818;-80
2021/12/01 08:02:25;;;;;;;;;0.00;0.00;;;;;11.79;73.32;99928.50;5033152;28;46301;-81
2021/12/01 08:04:51;;;;;;;;;0.00;0.00;;;;;11.79;72.90;99928.50;5047878;28;45275;-81
2021/12/01 08:07:16;;;;;;;;;0.00;0.00;;;;;11.83;73.03;99931.81;5029214;28;45571;-80
2021/12/01 08:09:42;;;;;;;;;0.00;0.00;;;;;11.84;73.06;99924.78;5038855;28;47187;-80
2021/12/01 08:12:11;;;;;;;;;0.00;0.00;;;;;11.89;73.37;99922.78;5038647;28;45979;-80
2021/12/01 08:14:36;;;;;;;;;0.00;0.00;;;;;11.91;73.16;99913.00;5033633;28;45600;-80
2021/12/01 08:17:02;;;;;;;;;0.00;0.00;;;;;11.93;73.21;99897.97;5029777;28;45289;-80
2021/12/01 08:19:27;;;;;;;;;0.00;0.00;;;;;11.96;73.10;99904.88;5039117;28;47201;-80
2021/12/01 08:21:53;;;;;;;;;0.00;0.00;;;;;11.97;73.13;99896.03;5035413;28;45390;-81
2021/12/01 08:24:19;;;;;;;;;1.00;1.00;;;;;12.00;72.84;99904.63;5033590;28;45422;-81
2021/12/01 08:26:46;;;;;;;;;1.00;1.00;;;;;12.04;73.04;99905.31;5039857;28;45672;-81
2021/12/01 08:29:12;;;;;;;;;3.00;1.50;;;;;12.04;72.88;99905.31;5040744;28;45304;-80
2021/12/01 08:31:37;;;;;;;;;1.00;0.25;;;;;12.06;72.70;99892.06;5037252;28;45663;-79
2021/12/01 08:34:03;;;;;;;;;1.00;1.00;;;;;12.07;72.42;99893.78;5031701;28;45414;-79
2021/12/01 08:36:28;;;;;;;;;0.00;0.00;;;;;12.06;72.71;99886.78;5036127;28;45200;-79
2021/12/01 08:38:54;;;;;;;;;0.00;0.00;;;;;12.05;73.11;99878.03;5039148;28;47156;-79
2021/12/01 08:41:19;;;;;;;;;0.00;0.00;;;;;12.07;72.65;99876.19;5040338;28;45502;-79
2021/12/01 08:43:46;;;;;;;;;2.00;0.00;;;;;12.07;72.91;99873.56;5037081;28;45353;-79
2021/12/01 08:46:11;;;;;;;;;0.00;0.00;;;;;12.09;72.60;99873.47;5033476;28;45719;-79
2021/12/01 08:48:37;;;;;;;;;2.00;1.00;;;;;12.09;72.59;99871.69;5033985;28;47187;-79
2021/12/01 08:51:04;;;;;;;;;0.00;0.00;;;;;12.10;72.24;99880.44;5040432;28;45340;-80
2021/12/01 08:53:31;;;;;;;;;1.00;1.00;;;;;12.10;72.76;99886.53;5055942;28;45496;-80
2021/12/01 08:55:57;;;;;;;;;0.00;0.00;;;;;12.10;72.54;99893.63;5039278;28;45421;-86
2021/12/01 08:58:23;;;;;;;;;2.50;1.00;;;;;12.13;72.83;99891.69;5053317;28;48138;-87
2021/12/01 09:00:49;;;;;;;;;0.00;0.00;;;;;12.12;72.61;99897.84;5040396;28;45267;-85
2021/12/01 09:03:16;;;;;;;;;0.00;0.00;;;;;12.13;72.45;99889.06;5040291;28;45561;-86
2021/12/01 09:05:43;;;;;;;;;1.00;1.00;;;;;12.15;72.30;99888.97;5033522;28;45436;-86
2021/12/01 09:08:08;;;;;;;;;0.00;0.00;;;;;12.16;72.35;99885.41;5034722;28;45489;-88
2021/12/01 09:10:35;;;;;;;;;2.50;0.75;;;;;12.19;72.20;99894.94;5028666;28;45988;-85
2021/12/01 09:13:01;;;;;;;;;1.25;1.00;;;;;12.22;72.14;99898.25;5028543;28;45241;-86
2021/12/01 09:15:27;;;;;;;;;1.00;1.00;;;;;12.23;72.32;99886.78;5029866;28;45322;-81
2021/12/01 09:17:52;;;;;;;;;3.00;0.00;;;;;12.27;71.96;99879.56;5039896;28;45466;-79
2021/12/01 09:20:18;;;;;;;;;0.50;0.00;;;;;12.30;72.12;99879.38;5051843;28;45790;-79
2021/12/01 09:22:43;;;;;;;;;1.00;0.00;;;;;12.35;72.11;99879.13;5029700;28;47516;-79
2021/12/01 09:25:09;;;;;;;;;0.00;0.00;;;;;12.41;71.88;99896.41;5039352;28;45260;-80
2021/12/01 09:27:35;;;;;;;;;0.25;0.25;;;;;12.46;71.93;99882.06;5036790;28;46227;-80
2021/12/01 09:30:01;;;;;;;;;1.00;0.00;;;;;12.48;71.03;99882.81;5041882;28;45362;-80
2021/12/01 09:32:27;;;;;;;;;0.25;0.00;;;;;12.52;71.26;99878.22;5036940;28;45545;-79
2021/12/01 09:34:52;;;;;;;;;1.00;1.00;;;;;12.55;71.49;99877.19;5035380;28;47008;-80
2021/12/01 09:37:17;;;;;;;;;0.00;0.00;;;;;12.55;70.75;99885.97;5036632;28;46946;-80
2021/12/01 09:39:44;;;;;;;;;0.00;0.00;;;;;12.57;70.68;99883.22;5038528;28;45229;-80
2021/12/01 09:42:10;;;;;;;;;0.75;0.50;;;;;12.57;70.29;99884.09;5028714;28;45248;-80
2021/12/01 09:44:36;;;;;;;;;0.00;0.00;;;;;12.55;69.94;99879.84;5041546;28;46176;-80
2021/12/01 09:47:03;;;;;;;;;0.00;0.00;;;;;12.56;70.00;99879.75;5039860;28;46184;-80
2021/12/01 09:49:29;;;;;;;;;0.75;0.75;;;;;12.58;69.26;99888.44;5034625;28;45566;-80
2021/12/01 09:51:55;;;;;;;;;1.00;0.75;;;;;12.55;68.74;99900.91;5031251;28;45418;-80
2021/12/01 09:54:20;;;;;;;;;0.00;0.00;;;;;12.51;68.39;99900.25;5036062;28;46336;-79
2021/12/01 09:56:45;;;;;;;;;1.00;1.00;;;;;12.47;68.15;99904.81;5054636;28;47108;-79
2021/12/01 09:59:11;;;;;;;;;4.00;2.00;;;;;12.44;68.52;99894.47;5034112;28;45411;-80
2021/12/01 10:01:37;;;;;;;;;1.75;0.50;;;;;12.48;68.76;99903.03;5033345;28;45416;-79
2021/12/01 10:04:03;;;;;;;;;0.25;0.25;;;;;12.51;68.52;99894.97;5033880;28;45437;-79
2021/12/01 10:06:28;;;;;;;;;1.00;1.00;;;;;12.53;68.65;99898.38;5033404;28;48644;-79
2021/12/01 10:09:01;;;;;;;;;0.75;0.75;;;;;12.53;68.22;99895.75;5053241;28;45338;-79
2021/12/01 10:11:34;;;;;;;;;3.25;2.00;;;;;12.57;68.57;99902.53;5038940;28;45307;-79
2021/12/01 10:14:08;;;;;;;;;1.00;1.00;;;;;12.62;68.48;99904.09;5037521;28;45920;-80
2021/12/01 10:16:37;;;;;;;;;1.00;1.00;;;;;12.63;68.30;99904.00;5030800;28;45451;-80
2021/12/01 10:19:09;;;;;;;;;2.75;1.00;;;;;12.64;68.46;99899.56;5028272;28;45441;-79
2021/12/01 10:21:41;;;;;;;;;0.25;0.00;;;;;12.66;68.08;99905.63;5038412;28;45408;-79
2021/12/01 10:24:10;;;;;;;;;1.00;1.00;;;;;12.66;68.34;99897.69;5031236;28;45344;-80
2021/12/01 10:26:40;;;;;;;;;4.00;2.25;;;;;12.66;68.05;99893.28;5029521;28;45514;-81
2021/12/01 10:29:12;;;;;;;;;1.00;1.00;;;;;12.69;67.43;99892.28;5021645;28;45595;-80
2021/12/01 10:31:44;;;;;;;;;0.50;0.00;;;;;12.68;67.06;99888.78;5022733;28;45363;-83
2021/12/01 10:34:26;;;;;;;;;2.00;0.75;;;;;12.67;66.00;99889.69;5015661;28;45292;-80
2021/12/01 10:37:23;;;;;;;;;1.00;0.00;;;;;12.70;66.71;99901.84;5014786;28;47454;-79
2021/12/01 10:40:20;;;;;;;;;0.50;0.50;;;;;12.69;66.16;99892.28;5016277;28;45635;-80
2021/12/01 10:42:57;;;;;;;;;1.25;0.00;;;;;12.63;66.63;99895.22;5012093;28;45354;-80
2021/12/01 10:45:29;;;;;;;;;0.50;0.50;;;;;12.60;66.66;99912.06;5020613;28;45501;-80
2021/12/01 10:47:55;;;;;;;;;1.50;1.00;;;;;12.53;66.23;99898.38;5019550;28;45641;-79
2021/12/01 10:50:24;;;;;;;;;0.00;0.00;;;;;12.50;66.63;99903.81;5017717;28;45639;-79
2021/12/01 10:52:52;;;;;;;;;1.00;1.00;;;;;12.48;66.67;99900.41;5002470;28;45463;-79
2021/12/01 10:55:24;;;;;;;;;1.00;1.00;;;;;12.49;66.77;99895.03;5007839;28;46239;-79
2021/12/01 10:57:57;;;;;;;;;23.00;17.00;;;;;12.51;67.32;99902.03;5007663;28;48475;-79
2021/12/01 11:00:26;;;;;;;;;2.75;2.25;;;;;12.53;67.10;99902.78;5018348;28;45568;-79
2021/12/01 11:02:52;;;;;;;;;3.00;1.50;;;;;12.54;65.99;99908.00;5022458;28;45420;-79
2021/12/01 11:05:47;;;;;;;;;8.00;8.00;;;;;12.54;67.12;99899.22;5021115;28;45405;-79
2021/12/01 11:08:18;;;;;;;;;4.00;4.00;;;;;12.56;67.36;99902.63;5022437;28;47193;-79
2021/12/01 11:10:48;;;;;;;;;17.50;16.50;;;;;12.55;67.97;99893.00;5033865;28;45626;-80
2021/12/01 11:13:13;;;;;;;;;8.50;5.00;;;;;12.58;67.53;99893.72;5019707;28;45260;-80
2021/12/01 11:15:42;;;;;;;;;6.25;5.50;;;;;12.57;67.21;99881.44;5016627;28;46546;-79
2021/12/01 11:18:09;;;;;;;;;11.00;10.75;;;;;12.56;66.60;99877.13;5007823;28;45717;-79
2021/12/01 11:20:35;;;;;;;;;2.75;2.00;;;;;12.57;66.29;99878.81;5015782;28;45261;-79
2021/12/01 11:23:24;;;;;;;;;18.00;14.50;;;;;12.57;66.63;99889.34;5017284;28;45336;-79
2021/12/01 11:25:55;;;;;;;;;5.50;5.00;;;;;12.56;66.47;99894.72;5006866;28;45435;-79
2021/12/01 11:28:24;;;;;;;;;24.00;20.75;;;;;12.54;66.16;99889.53;5011873;28;45488;-82
2021/12/01 11:30:56;;;;;;;;;17.25;14.50;;;;;12.50;65.83;99888.00;5021275;28;45713;-79